Latest Weather Observations for Troughton Island

IDD60801

Issued at 6:01 pm CST Saturday 16 December 2017 (issued every 30 minutes, with the page automatically refreshed every 10 minutes)

About weather observations | Map of weather stations | Latest weather observations for NT | Other Formats
Station Details ID: 001007 Name: TROUGHTON ISLAND Lat: -13.75 Lon: 126.15 Height: 6.0 m
Data from the previous 72 hours. | See also: Recent months at Troughton Island
Date/Time
CST
Temp
°C
App
Temp
°C
Dew
Point
°C
Rel
Hum
%
Delta-T
°C
Wind Press
QNH
hPa
Press
MSL
hPa
Rain since
9am
mm
Dir  Spd
km/h
Gust
km/h
Spd
kts
Gust
kts
16/06:00pm 31.8 35.2 25.9 71 4.2 WNW 19 20 10 11 1006.2 1006.1 0.0
16/05:30pm 32.2 36.4 26.0 70 4.4 WNW 15 19 8 10 1006.5 1006.4 0.0
16/05:00pm 32.4 36.8 25.7 68 4.8 W 13 17 7 9 1006.6 1006.5 0.0
16/04:30pm 32.4 36.9 25.2 66 5.1 W 11 15 6 8 1006.7 1006.6 0.0
16/04:00pm 32.2 36.6 25.0 65 5.1 W 11 15 6 8 1006.9 1006.8 0.0
16/03:30pm 32.4 37.1 25.5 67 4.9 WNW 11 15 6 8 1007.3 1007.2 0.0
16/03:00pm 32.1 36.4 24.9 65 5.1 WNW 11 17 6 9 1007.6 1007.5 0.0
16/02:30pm 32.2 37.1 25.8 69 4.6 NW 11 15 6 8 1007.7 1007.6 0.0
16/02:00pm 31.6 35.2 25.0 68 4.7 N 15 20 8 11 1008.0 1007.9 0.0
16/01:30pm 31.6 34.7 24.2 65 5.2 NNE 15 22 8 12 1008.4 1008.3 0.0
16/01:00pm 32.2 35.4 25.0 65 5.1 NNE 17 20 9 11 1008.6 1008.5 0.0
16/12:30pm 31.8 35.9 25.2 68 4.7 NNE 13 19 7 10 1008.8 1008.7 0.0
16/12:00pm 31.0 34.5 24.9 70 4.3 N 15 20 8 11 1008.8 1008.7 0.0
16/11:30am 31.4 35.8 25.7 71 4.1 N 13 19 7 10 1009.2 1009.1 0.0
16/11:00am 31.3 36.4 25.6 71 4.0 NNE 9 15 5 8 1009.6 1009.5 0.0
16/10:30am 30.7 34.9 24.8 71 4.1 NNE 11 15 6 8 1009.7 1009.6 2.8
16/10:00am 31.4 36.6 25.7 71 4.1 ENE 9 11 5 6 1010.2 1010.1 2.8
16/09:30am 30.8 35.8 25.4 73 3.8 NE 9 13 5 7 1010.0 1009.9 2.8
16/09:00am 30.1 36.5 24.9 73 3.6 CALM 0 6 0 3 1010.2 1010.1 2.8
16/08:30am 30.2 36.5 25.3 75 3.5 ESE 2 6 1 3 1010.3 1010.2 2.8
16/08:00am 29.7 36.4 25.4 78 3.0 CALM 0 7 0 4 1010.2 1010.1 2.8
16/07:30am 29.1 36.0 25.7 82 2.4 CALM 0 0 0 0 1009.9 1009.8 2.8
16/07:00am 28.7 34.3 25.5 83 2.3 NNE 6 7 3 4 1009.7 1009.6 2.8
16/06:30am 28.8 34.4 25.4 82 2.4 NE 6 9 3 5 1009.3 1009.2 2.8
16/06:00am 28.7 33.6 25.3 82 2.4 NE 9 11 5 6 1008.9 1008.8 2.8
16/05:30am 28.8 34.1 25.2 81 2.5 E 7 9 4 5 1008.9 1008.8 2.8
16/05:00am 28.9 34.0 25.5 82 2.4 ESE 9 13 5 7 1008.6 1008.5 2.8
16/04:30am 28.9 33.8 25.3 81 2.5 ESE 9 11 5 6 1008.1 1008.0 2.8
16/04:00am 28.8 33.8 25.4 82 2.4 ESE 9 11 5 6 1008.4 1008.3 2.8
16/03:30am 29.0 33.1 25.2 80 2.7 SE 13 17 7 9 1008.1 1008.0 2.8
16/03:00am 29.0 34.4 25.4 81 2.5 SE 7 9 4 5 1007.9 1007.8 2.8
16/02:30am 28.8 35.0 25.2 81 2.5 E 2 7 1 4 1007.2 1007.1 2.8
16/02:00am 28.9 35.3 24.9 79 2.8 CALM 0 0 0 0 1007.4 1007.3 2.8
16/01:30am 28.4 34.6 24.6 80 2.7 CALM 0 0 0 0 1007.6 1007.5 2.8
16/01:00am 28.6 33.9 24.4 78 2.9 E 4 6 2 3 1007.8 1007.7 2.8
16/12:30am 28.7 34.0 24.3 77 3.1 E 4 7 2 4 1008.0 1007.9 2.8
16/12:00am 28.8 33.7 24.4 77 3.1 ESE 6 9 3 5 1008.4 1008.3 2.8
 
Date/Time
CST
Temp
°C
App
Temp
°C
Dew
Point
°C
Rel
Hum
%
Delta-T
°C
Wind Press
QNH
hPa
Press
MSL
hPa
Rain since
9am
mm
Dir  Spd
km/h
Gust
km/h
Spd
kts
Gust
kts
15/11:30pm 28.9 33.7 24.5 77 3.1 ESE 7 9 4 5 1008.4 1008.3 2.8
15/11:00pm 29.1 33.2 24.0 74 3.5 SSW 9 15 5 8 1008.4 1008.3 2.8
15/10:30pm 29.2 32.1 23.9 73 3.7 SSW 15 19 8 10 1008.3 1008.2 2.8
15/10:00pm 29.1 30.9 23.5 72 3.9 SW 20 24 11 13 1008.0 1007.9 2.8
15/09:30pm 29.1 30.7 23.3 71 4.0 SW 20 26 11 14 1007.3 1007.2 2.8
15/09:00pm 28.9 31.3 23.6 73 3.6 SSW 17 24 9 13 1007.0 1006.9 2.8
15/08:30pm 28.9 31.0 23.1 71 4.0 SSW 17 20 9 11 1006.6 1006.5 2.8
15/08:00pm 28.8 30.8 22.3 68 4.4 SW 15 20 8 11 1006.3 1006.2 2.8
15/07:30pm 28.6 30.8 21.9 67 4.5 SW 13 19 7 10 1006.0 1005.9 2.8
15/07:00pm 28.5 30.9 21.5 66 4.7 WSW 11 15 6 8 1005.8 1005.7 2.8
15/06:30pm 28.6 31.7 21.4 65 4.8 SW 7 11 4 6 1005.7 1005.6 2.8
15/06:00pm 28.6 30.9 21.4 65 4.8 WSW 11 15 6 8 1005.6 1005.5 2.8
15/05:30pm 28.5 31.2 21.3 65 4.8 W 9 11 5 6 1006.0 1005.9 2.8
15/05:00pm 28.3 30.3 21.6 67 4.5 W 13 17 7 9 1006.3 1006.2 2.8
15/04:30pm 28.2 31.0 21.5 67 4.5 WNW 9 13 5 7 1006.4 1006.3 2.8
15/04:00pm 28.1 30.8 21.4 67 4.5 WNW 9 13 5 7 1006.6 1006.5 2.8
15/03:30pm 28.1 30.5 21.6 68 4.4 WNW 11 15 6 8 1006.7 1006.6 2.8
15/03:00pm 27.8 29.6 21.1 67 4.4 WNW 13 17 7 9 1006.6 1006.5 2.8
15/02:30pm 27.4 29.3 21.4 70 4.0 NW 13 17 7 9 1007.0 1006.9 2.8
15/02:00pm 27.1 31.3 21.8 73 3.5 W 2 7 1 4 1007.9 1007.8 2.8
15/01:30pm 26.2 29.9 22.5 80 2.5 WSW 7 9 4 5 1008.7 1008.6 2.8
15/01:00pm 26.0 31.4 23.3 85 1.8 CALM 0 6 0 3 1008.9 1008.8 2.6
15/12:30pm 25.9 27.8 22.8 83 2.1 N 17 22 9 12 1008.8 1008.7 2.2
15/12:00pm 25.8 29.3 22.9 84 2.0 NE 9 15 5 8 1010.4 1010.3 1.8
15/11:30am 25.7 27.8 22.4 82 2.2 E 15 19 8 10 1011.4 1011.3 1.0
15/11:00am 25.9 26.2 22.2 80 2.5 E 24 30 13 16 1011.7 1011.6 0.4
15/10:30am 25.7 24.8 23.2 86 1.7 E 33 39 18 21 1011.1 1011.0 43.0
15/10:00am 24.8 24.5 23.8 94 0.7 ESE 32 41 17 22 1011.4 1011.3 42.6
15/09:30am 25.3 24.9 24.6 96 0.5 SE 35 44 19 24 1012.1 1012.0 40.0
15/09:00am 24.6 22.3 24.3 98 0.2 ESE 44 52 24 28 1011.0 1010.9 38.4
15/08:30am 24.2 19.7 23.9 98 0.2 SE 54 72 29 39 1010.0 1009.9 29.0
15/08:26am 24.4 19.5 24.1 98 0.2 SE 57 72 31 39 1010.2 1010.1 27.0
15/08:24am 24.1 18.5 23.6 97 0.3 SE 59 76 32 41 1010.1 1010.0 26.0
15/08:15am 24.5 19.4 23.8 96 0.5 ESE 57 76 31 41 1010.0 1009.9 19.8
15/08:00am 25.2 20.7 23.8 92 1.0 E 54 67 29 36 1010.3 1010.2 2.6
15/07:52am 26.3 26.7 23.8 86 1.7 NNE 28 56 15 30 1010.0 1009.9 0.0
15/07:49am 26.5 27.7 22.1 77 3.0 NNW 19 44 10 24 1010.0 1009.9 0.0
15/07:30am 30.4 34.3 26.6 80 2.7 W 19 20 10 11 1008.9 1008.8 0.0
15/07:00am 30.3 32.8 26.5 80 2.7 W 26 32 14 17 1007.8 1007.7 0.0
15/06:30am 30.2 32.4 26.1 79 2.9 W 26 32 14 17 1007.6 1007.5 0.0
15/06:00am 30.1 31.6 26.1 79 2.8 WSW 30 35 16 19 1006.9 1006.8 0.0
15/05:30am 30.4 32.7 26.8 81 2.6 WSW 28 32 15 17 1006.8 1006.7 0.0
15/05:00am 30.2 32.2 26.4 80 2.7 W 28 33 15 18 1006.5 1006.4 0.0
15/04:30am 30.2 32.2 26.4 80 2.7 W 28 32 15 17 1006.6 1006.5 0.0
15/04:00am 30.3 31.8 26.2 79 2.9 W 30 35 16 19 1006.4 1006.3 0.0
15/03:30am 30.4 32.2 26.6 80 2.7 W 30 35 16 19 1006.3 1006.2 0.0
15/03:00am 30.4 31.6 26.3 79 2.9 W 32 35 17 19 1006.2 1006.1 0.0
15/02:30am 30.6 32.2 26.3 78 3.1 W 30 35 16 19 1006.1 1006.0 0.0
15/02:00am 30.5 31.8 26.4 79 2.9 W 32 37 17 20 1006.2 1006.1 0.0
15/01:30am 30.6 32.2 26.3 78 3.1 W 30 35 16 19 1006.9 1006.8 0.0
15/01:00am 30.8 32.4 26.3 77 3.2 W 30 35 16 19 1007.4 1007.3 0.0
15/12:30am 30.8 32.1 26.5 78 3.1 W 32 35 17 19 1007.8 1007.7 0.0
15/12:00am 30.8 31.4 26.3 77 3.2 W 35 41 19 22 1007.6 1007.5 0.0
 
Date/Time
CST
Temp
°C
App
Temp
°C
Dew
Point
°C
Rel
Hum
%
Delta-T
°C
Wind Press
QNH
hPa
Press
MSL
hPa
Rain since
9am
mm
Dir  Spd
km/h
Gust
km/h
Spd
kts
Gust
kts
14/11:30pm 31.0 32.3 26.7 78 3.1 W 33 41 18 22 1007.7 1007.6 0.0
14/11:00pm 30.8 32.0 26.5 78 3.1 W 33 39 18 21 1007.3 1007.2 0.0
14/10:30pm 30.8 31.6 26.5 78 3.1 W 35 43 19 23 1007.1 1007.0 0.0
14/10:00pm 30.9 31.6 26.4 77 3.2 W 35 41 19 22 1006.9 1006.8 0.0
14/09:30pm 30.9 31.6 26.4 77 3.2 W 35 41 19 22 1006.9 1006.8 0.0
14/09:00pm 31.0 31.8 26.5 77 3.2 W 35 44 19 24 1006.8 1006.7 0.0
14/08:30pm 31.0 31.6 26.3 76 3.4 W 35 43 19 23 1006.3 1006.2 0.0
14/08:00pm 30.9 31.9 26.2 76 3.4 W 33 41 18 22 1006.0 1005.9 0.0
14/07:30pm 31.1 32.1 25.9 74 3.7 W 32 41 17 22 1005.8 1005.7 0.0
14/07:00pm 31.4 32.5 26.2 74 3.7 W 32 37 17 20 1005.5 1005.4 0.0
14/06:30pm 31.5 32.2 25.8 72 4.1 W 33 39 18 21 1005.5 1005.4 0.0
14/06:00pm 31.7 31.8 26.0 72 4.1 W 37 43 20 23 1005.3 1005.2 0.0
14/05:30pm 32.3 33.0 26.4 71 4.2 W 35 41 19 22 1005.2 1005.1 0.0
14/05:00pm 32.5 33.0 26.6 71 4.2 W 37 44 20 24 1005.1 1005.0 0.0
14/04:30pm 33.4 34.7 27.2 70 4.5 W 35 43 19 23 1005.1 1005.0 0.0
14/04:00pm 33.3 33.8 26.6 68 4.8 W 37 43 20 23 1005.2 1005.1 0.0
14/03:30pm 33.3 33.6 26.3 66 5.0 W 37 43 20 23 1005.3 1005.2 0.0
14/03:00pm 33.8 34.2 26.5 65 5.3 W 37 43 20 23 1005.5 1005.4 0.0
14/02:30pm 34.0 34.5 26.7 65 5.3 W 37 43 20 23 1006.3 1006.2 0.0
14/02:00pm 34.1 35.5 26.8 65 5.3 W 33 41 18 22 1006.5 1006.4 0.0
14/01:30pm 34.8 36.3 26.7 63 5.9 W 32 37 17 20 1007.1 1007.0 0.0
14/01:00pm 33.9 35.3 26.6 65 5.3 W 32 37 17 20 1007.8 1007.7 0.0
14/12:30pm 33.8 35.6 26.0 63 5.6 W 28 33 15 18 1008.6 1008.5 0.0
14/12:00pm 34.0 36.5 25.9 62 5.8 W 24 28 13 15 1008.7 1008.6 0.0
14/11:30am 33.7 36.7 26.2 65 5.4 WNW 22 28 12 15 1009.1 1009.0 0.0
14/11:00am 33.3 36.3 26.1 66 5.2 WNW 22 26 12 14 1009.6 1009.5 0.0
14/10:30am 33.3 36.3 26.1 66 5.2 W 22 26 12 14 1009.4 1009.3 0.0
14/10:00am 33.4 36.1 25.6 63 5.6 WNW 22 26 12 14 1009.7 1009.6 0.0
14/09:30am 33.1 36.7 26.4 68 4.8 WNW 20 26 11 14 1010.1 1010.0 0.0
14/09:00am 32.7 36.2 26.3 69 4.6 W 20 26 11 14 1010.1 1010.0 0.0
14/08:30am 32.5 36.3 26.8 72 4.1 W 20 24 11 13 1009.8 1009.7 0.0
14/08:00am 31.4 34.4 26.2 74 3.7 W 22 26 12 14 1009.1 1009.0 0.0
14/07:30am 31.1 34.7 26.4 76 3.4 W 20 24 11 13 1008.8 1008.7 0.0
14/07:00am 30.6 33.1 25.4 74 3.7 W 22 26 12 14 1008.7 1008.6 0.0
14/06:30am 30.3 33.0 25.6 76 3.3 W 22 28 12 15 1008.4 1008.3 0.0
14/06:00am 30.2 32.7 25.9 78 3.1 W 24 32 13 17 1007.6 1007.5 0.0
14/05:30am 30.3 33.9 26.2 79 2.9 W 19 20 10 11 1007.7 1007.6 0.0
14/05:00am 30.3 33.9 25.6 76 3.3 WSW 17 22 9 12 1007.5 1007.4 0.0
14/04:30am 30.3 33.6 25.1 73 3.7 WSW 17 22 9 12 1007.8 1007.7 0.0
14/04:00am 30.4 32.0 25.2 74 3.7 WSW 26 32 14 17 1007.0 1006.9 0.0
14/03:30am 30.6 30.2 24.7 71 4.1 WSW 35 43 19 23 1006.2 1006.1 0.0
14/03:00am 30.5 30.6 26.0 77 3.2 W 37 43 20 23 1006.3 1006.2 0.0
14/02:30am 30.6 32.1 26.7 80 2.8 W 32 39 17 21 1006.3 1006.2 0.0
14/02:00am 30.6 32.5 26.7 80 2.8 WNW 30 33 16 18 1006.4 1006.3 0.0
14/01:30am 30.6 33.1 26.5 79 2.9 W 26 30 14 16 1006.9 1006.8 0.0
14/01:00am 30.6 33.5 26.5 79 2.9 W 24 28 13 15 1007.4 1007.3 0.0
14/12:30am 30.8 33.7 26.5 78 3.1 W 24 30 13 16 1007.8 1007.7 0.0
14/12:00am 30.7 33.4 26.8 80 2.8 W 26 32 14 17 1007.8 1007.7 0.0
 
Date/Time
CST
Temp
°C
App
Temp
°C
Dew
Point
°C
Rel
Hum
%
Delta-T
°C
Wind Press
QNH
hPa
Press
MSL
hPa
Rain since
9am
mm
Dir  Spd
km/h
Gust
km/h
Spd
kts
Gust
kts
13/11:30pm 30.9 33.6 27.3 81 2.6 WSW 28 35 15 19 1007.9 1007.8 0.0
13/11:00pm 30.9 32.6 27.3 81 2.6 WSW 33 39 18 21 1008.0 1007.9 0.0
13/10:30pm 30.9 33.7 27.5 82 2.5 W 28 37 15 20 1007.7 1007.6 0.0
13/10:00pm 30.3 32.8 24.7 72 3.9 WSW 20 24 11 13 1007.4 1007.3 0.0
13/09:30pm 30.4 32.6 24.8 72 3.9 WSW 22 26 12 14 1007.6 1007.5 0.0
13/09:00pm 30.3 32.1 23.5 67 4.7 WSW 20 22 11 12 1007.3 1007.2 0.0
13/08:30pm 30.0 34.6 24.2 71 4.0 SSW 7 11 4 6 1006.7 1006.6 0.0
13/08:00pm 30.1 34.2 24.0 70 4.2 SSE 9 13 5 7 1006.6 1006.5 0.0

Other Formats:

Comma delimited format used in spreadsheet applications
http://www.bom.gov.au/fwo/IDD60801/IDD60801.94102.axf

JavaScript Object Notation format (JSON) in row-major order
http://www.bom.gov.au/fwo/IDD60801/IDD60801.94102.json